If you wish to contribute or participate in the discussions about articles you are invited to join SKYbrary as a registered user

 Actions

Ain el Beida Airport

From SKYbrary Wiki

DAUU
Airport
ICAO: DAUU – IATA: OGX
Summary
Name Ain el Beida Airport
Region Africa
Territory Algeria DZ.gif
Location , Ouargla
Serving Ouargla
Elevation 149.962 m <br />492 ft <br />492 ft149.962 m <br />
Type medium airport
Coordinates 31° 55' 2.00" N, 5° 24' 46.00" E
Runways
Designator Length Width Surface ROPS
2/20 3000 m9,842.52 ft <br /> 45 m147.638 ft <br /> ASP /
18/36 3100 m10,170.604 ft <br /> 45 m147.638 ft <br /> ASP /


METAR
Observation DAUU 031200Z 10018KT 1000 BLSA FEW033TCU SCT040 20/04 Q1018
Station Ouargla
Date/Time 03 March 2021 12:00:00
Wind direction 100°
Wind speed 18 kts
Lowest cloud amount few clouds
Temperature 20°C
Dew point 4°C
Humidity 34%
QNH 1018 hPa
Weather condition n/a